El Paso, Illinois
Current Conditions -  °F | °C
As of 6:56 AM on Wednesday 26 Nov 2014 (Local Time) from KBMI Reporting Station
Clear Clear  
Wind Chill: 10°   Ceiling: Unl
Heat Index: 21°   Visibility: 7mi
Dew Point: 20°   Wind: 10mph
Humidity: 96%   Direction: 130°SE
Pressure: 30.11"   Gusts: NA
Location:  40.74°N, 89.02°W
Report Text: KBMI 261256Z 13009KT 7SM CLR M06/M07 A3011 RMK AO2 T10611066 SLP220
Loading
Personal Weather Stations






























Interactive Weather Map New forecast layout! Learn more

10-Day Weather Forecast

Advertisements
Track Severe Weather on mobile